Time;durP1;ratioP1;P1;durP2;ratioP2;P2;SDS_P1;SDS_P2;PMS_P1;PMS_P2;Temp;Humidity;BMP_temperature;BMP_pressure;BME280_temperature;BME280_humidity;BME280_pressure;Samples;Min_cycle;Max_cycle;Signal;HPM_P1;HPM_P2
2023/03/31 00:08:20;;;;;;;11.87;3.97;;;10.30;99.90;;;;;;20830049;28;20041;-83
2023/03/31 00:18:21;;;;;;;12.93;3.43;;;10.30;99.90;;;;;;20753470;28;20075;-80
2023/03/31 00:28:22;;;;;;;10.57;4.00;;;10.20;99.90;;;;;;20750964;28;20033;-82
2023/03/31 00:38:23;;;;;;;11.90;3.77;;;10.40;99.90;;;;;;20756044;28;20033;-79
2023/03/31 00:48:24;;;;;;;10.77;3.60;;;10.40;99.90;;;;;;20833447;28;20022;-83
2023/03/31 00:58:28;;;;;;;13.47;4.23;;;10.30;99.90;;;;;;20833227;28;20397;-81
2023/03/31 01:08:29;;;;;;;10.50;3.75;;;10.30;99.90;;;;;;20829692;28;20319;-83
2023/03/31 01:18:33;;;;;;;6.82;3.95;;;10.40;99.90;;;;;;20792417;28;20037;-81
2023/03/31 01:28:46;;;;;;;8.60;3.30;;;10.50;99.90;;;;;;20827280;28;20504;-79
2023/03/31 01:39:10;;;;;;;13.55;3.70;;;10.40;99.90;;;;;;20841741;28;20030;-80
2023/03/31 01:49:21;;;;;;;9.98;3.88;;;10.40;99.90;;;;;;20829065;28;20029;-80
2023/03/31 01:59:25;;;;;;;12.63;4.67;;;10.30;99.90;;;;;;20842314;28;20029;-80
2023/03/31 02:09:34;;;;;;;9.30;4.15;;;10.40;99.90;;;;;;20822587;28;20040;-80
2023/03/31 02:19:39;;;;;;;8.65;4.25;;;10.30;99.90;;;;;;20840056;28;20038;-81
2023/03/31 02:29:41;;;;;;;14.63;4.30;;;10.30;99.90;;;;;;20840257;28;20052;-81
2023/03/31 02:39:46;;;;;;;6.95;3.97;;;10.20;99.90;;;;;;20834551;28;20029;-81
2023/03/31 02:49:51;;;;;;;6.57;3.67;;;10.00;99.90;;;;;;20838204;28;20049;-83
2023/03/31 03:00:12;;;;;;;9.90;4.60;;;9.80;99.90;;;;;;20834467;28;20033;-79
2023/03/31 03:10:26;;;;;;;15.45;4.68;;;9.40;99.90;;;;;;20840081;28;20033;-83
2023/03/31 03:20:27;;;;;;;12.50;4.40;;;9.50;99.90;;;;;;20843277;28;20061;-81
2023/03/31 03:30:28;;;;;;;12.37;5.30;;;9.50;99.90;;;;;;20787145;28;20036;-80
2023/03/31 03:40:29;;;;;;;7.40;4.83;;;9.50;99.90;;;;;;20828784;28;20033;-81
2023/03/31 03:50:30;;;;;;;13.18;5.32;;;9.50;99.90;;;;;;20836056;28;20033;-81
2023/03/31 04:00:31;;;;;;;16.25;4.80;;;9.50;99.90;;;;;;20830636;28;20045;-81
2023/03/31 04:10:32;;;;;;;;;;;9.60;99.90;;;;;;20813491;28;20035;-79
2023/03/31 04:20:36;;;;;;;13.35;4.80;;;9.50;99.90;;;;;;20843546;28;20171;-80
2023/03/31 04:30:38;;;;;;;9.05;4.30;;;9.70;99.90;;;;;;20829290;28;20136;-80
2023/03/31 04:40:40;;;;;;;13.73;5.30;;;9.70;99.90;;;;;;20826484;28;20029;-81
2023/03/31 04:50:41;;;;;;;12.80;4.85;;;9.60;99.90;;;;;;20826915;28;20025;-80
2023/03/31 05:00:42;;;;;;;17.25;4.80;;;9.60;99.90;;;;;;20844171;23;20029;-77
2023/03/31 05:10:43;;;;;;;7.10;4.67;;;9.80;99.90;;;;;;20885490;28;20048;-77
2023/03/31 05:20:44;;;;;;;9.23;5.35;;;9.80;99.90;;;;;;20890765;28;20033;-77
2023/03/31 05:30:45;;;;;;;11.43;4.38;;;9.70;99.90;;;;;;20821899;28;20028;-77
2023/03/31 05:40:46;;;;;;;10.37;5.57;;;9.60;99.90;;;;;;20800511;28;20025;-77
2023/03/31 05:50:47;;;;;;;;;;;9.70;99.90;;;;;;20809682;28;20040;-78
2023/03/31 06:00:47;;;;;;;13.40;6.07;;;9.80;99.90;;;;;;20828875;28;19960;-77
2023/03/31 06:10:48;;;;;;;13.30;4.37;;;9.90;99.90;;;;;;20801685;28;20118;-77
2023/03/31 06:20:50;;;;;;;6.40;3.67;;;9.90;99.90;;;;;;20796830;28;20027;-78
2023/03/31 06:30:59;;;;;;;10.23;3.83;;;10.10;99.90;;;;;;20812365;28;20033;-78
2023/03/31 06:41:01;;;;;;;8.85;2.78;;;10.20;99.90;;;;;;20845970;28;20533;-77
2023/03/31 06:51:04;;;;;;;5.60;1.70;;;11.50;99.90;;;;;;20923700;28;20037;-78
2023/03/31 07:01:05;;;;;;;4.88;1.40;;;11.40;99.90;;;;;;20922380;28;20487;-77
2023/03/31 07:11:06;;;;;;;5.32;1.00;;;11.40;99.90;;;;;;20843447;28;20041;-77
2023/03/31 07:21:07;;;;;;;3.20;1.20;;;11.30;99.90;;;;;;20805118;28;20426;-78
2023/03/31 07:31:12;;;;;;;;;;;11.40;99.90;;;;;;20817168;28;20040;-77
2023/03/31 07:41:14;;;;;;;2.05;1.40;;;12.60;99.90;;;;;;20883423;28;19958;-77
2023/03/31 07:51:21;;;;;;;3.40;1.30;;;12.30;99.90;;;;;;20917107;28;20036;-77
2023/03/31 08:01:24;;;;;;;4.93;1.63;;;12.70;99.90;;;;;;20916755;28;20033;-77
2023/03/31 08:11:25;;;;;;;5.03;1.52;;;12.10;99.90;;;;;;20915867;28;20040;-77
2023/03/31 08:21:28;;;;;;;3.80;1.60;;;12.20;99.90;;;;;;20914318;28;20025;-78
2023/03/31 08:31:29;;;;;;;5.43;1.70;;;12.50;99.90;;;;;;20913781;28;20522;-78
2023/03/31 08:41:35;;;;;;;4.85;1.25;;;12.40;99.90;;;;;;20914683;28;20040;-77
2023/03/31 08:51:45;;;;;;;10.02;2.85;;;12.70;99.90;;;;;;20913299;28;20021;-78
2023/03/31 09:01:57;;;;;;;6.53;1.88;;;12.50;99.90;;;;;;20914214;28;20036;-77
2023/03/31 09:12:08;;;;;;;7.10;2.20;;;12.20;99.90;;;;;;20912261;28;20086;-78
2023/03/31 09:22:16;;;;;;;11.18;1.65;;;12.20;99.90;;;;;;20913220;28;20060;-77
2023/03/31 09:32:24;;;;;;;5.57;1.55;;;11.80;99.90;;;;;;20912302;28;20037;-78
2023/03/31 09:42:25;;;;;;;5.82;1.50;;;11.90;99.90;;;;;;20914369;28;20031;-78
2023/03/31 09:52:30;;;;;;;2.73;0.77;;;14.00;99.90;;;;;;20914347;28;20058;-77
2023/03/31 10:02:37;;;;;;;9.40;1.10;;;14.80;99.90;;;;;;20912249;28;20116;-77
2023/03/31 10:12:38;;;;;;;7.07;1.20;;;14.20;99.90;;;;;;20918506;28;20032;-78
2023/03/31 10:22:43;;;;;;;5.20;1.10;;;15.50;99.90;;;;;;20926075;28;20454;-78
2023/03/31 10:32:44;;;;;;;3.33;1.00;;;16.10;99.90;;;;;;20841149;28;20037;-78
2023/03/31 10:42:49;;;;;;;8.13;0.90;;;17.20;99.90;;;;;;20837775;28;20063;-77
2023/03/31 10:52:50;;;;;;;6.20;1.13;;;16.80;99.90;;;;;;20801816;28;20288;-77
2023/03/31 11:03:01;;;;;;;5.20;0.97;;;16.60;99.90;;;;;;20800588;23;20040;-80
2023/03/31 11:13:14;;;;;;;9.63;1.33;;;15.80;99.90;;;;;;20866347;28;20382;-81
2023/03/31 11:23:40;;;;;;;4.72;0.90;;;16.10;99.90;;;;;;20866957;28;20033;-82
2023/03/31 11:34:06;;;;;;;3.53;0.70;;;16.60;99.90;;;;;;20867996;28;20109;-80
2023/03/31 11:44:13;;;;;;;4.18;0.85;;;17.20;98.80;;;;;;20860684;28;20029;-80
2023/03/31 11:54:23;;;;;;;8.43;0.68;;;18.10;98.30;;;;;;20873593;28;20099;-82
2023/03/31 12:04:36;;;;;;;4.55;0.73;;;15.10;99.50;;;;;;20889799;28;20025;-80
2023/03/31 12:14:52;;;;;;;4.97;1.08;;;13.50;99.90;;;;;;20915909;28;20481;-80
2023/03/31 12:24:53;;;;;;;9.63;1.08;;;11.30;99.90;;;;;;20920179;28;20036;-81
2023/03/31 12:35:06;;;;;;;2.28;0.43;;;12.20;99.90;;;;;;20912983;28;20040;-82
2023/03/31 12:45:17;;;;;;;4.93;0.50;;;13.40;99.90;;;;;;20893587;28;20123;-80
2023/03/31 12:55:31;;;;;;;4.32;1.00;;;15.30;99.90;;;;;;20909917;28;20029;-81
2023/03/31 13:05:36;;;;;;;3.78;0.60;;;13.90;99.90;;;;;;20907728;28;20061;-82
2023/03/31 13:15:36;;;;;;;3.88;0.63;;;13.40;99.90;;;;;;20909178;28;20037;-81
2023/03/31 13:26:00;;;;;;;3.57;0.97;;;13.50;99.90;;;;;;20889623;28;20025;-81
2023/03/31 13:36:16;;;;;;;1.73;0.63;;;13.50;99.90;;;;;;20875237;28;20404;-81
2023/03/31 13:46:42;;;;;;;5.32;1.30;;;13.70;99.90;;;;;;20858614;28;20030;-81
2023/03/31 13:57:20;;;;;;;10.63;3.70;;;14.20;99.90;;;;;;20985465;28;20116;-80
2023/03/31 14:07:31;;;;;;;9.05;3.30;;;14.60;99.90;;;;;;21003858;28;20056;-80
2023/03/31 14:17:38;;;;;;;5.40;1.63;;;14.60;99.90;;;;;;21003343;28;20078;-80
2023/03/31 14:27:44;;;;;;;6.43;1.48;;;12.70;99.90;;;;;;21002907;28;20037;-81
2023/03/31 14:37:47;;;;;;;2.83;0.70;;;10.30;99.90;;;;;;21001176;28;20799;-80
2023/03/31 14:48:01;;;;;;;3.50;0.63;;;9.20;99.90;;;;;;20972225;28;20108;-80
2023/03/31 14:58:02;;;;;;;1.98;0.50;;;9.10;99.90;;;;;;20919192;28;20041;-79
2023/03/31 15:08:10;;;;;;;7.63;0.50;;;9.10;99.90;;;;;;20918565;28;20039;-80
2023/03/31 15:18:14;;;;;;;4.35;0.85;;;10.20;99.90;;;;;;20881648;28;20056;-80
2023/03/31 15:28:16;;;;;;;2.58;0.60;;;9.70;99.90;;;;;;20879524;28;20529;-78
2023/03/31 15:38:17;;;;;;;2.65;0.50;;;9.30;99.90;;;;;;20818346;28;20487;-80
2023/03/31 15:48:36;;;;;;;3.20;0.50;;;9.00;99.90;;;;;;20843164;28;20033;-81
2023/03/31 15:58:51;;;;;;;2.42;0.65;;;8.80;99.90;;;;;;20928876;28;20037;-81
2023/03/31 16:09:04;;;;;;;5.68;0.70;;;8.90;99.90;;;;;;20993263;28;20109;-81
2023/03/31 16:19:09;;;;;;;4.18;1.00;;;9.00;99.90;;;;;;20928479;28;20029;-82
2023/03/31 16:29:19;;;;;;;6.70;1.02;;;9.00;99.90;;;;;;20887380;28;20104;-81
2023/03/31 16:39:20;;;;;;;3.93;0.73;;;9.00;99.90;;;;;;20943028;28;20036;-80
2023/03/31 16:49:21;;;;;;;6.30;1.05;;;9.20;99.90;;;;;;20978976;28;20036;-79
2023/03/31 16:59:23;;;;;;;4.60;0.90;;;9.30;99.90;;;;;;20998690;28;20035;-81
2023/03/31 17:09:24;;;;;;;8.95;1.40;;;9.20;99.90;;;;;;20861678;23;20045;-78
2023/03/31 17:19:26;;;;;;;7.23;1.23;;;9.20;99.90;;;;;;20832551;28;20084;-78
2023/03/31 17:29:27;;;;;;;2.05;0.60;;;9.40;99.90;;;;;;20828788;28;20075;-78
2023/03/31 17:39:28;;;;;;;7.23;0.77;;;9.40;99.90;;;;;;20807080;28;20033;-78
2023/03/31 17:49:29;;;;;;;4.37;1.03;;;9.30;99.90;;;;;;20826154;28;20308;-79
2023/03/31 17:59:30;;;;;;;9.88;2.58;;;8.90;99.90;;;;;;20804576;28;20143;-79
2023/03/31 18:09:30;;;;;;;4.03;0.90;;;8.70;99.90;;;;;;20801611;28;20054;-78
2023/03/31 18:19:32;;;;;;;3.60;1.00;;;8.50;99.90;;;;;;20810414;28;20045;-78
2023/03/31 18:29:33;;;;;;;3.60;1.00;;;8.50;99.90;;;;;;20816736;28;20535;-77
2023/03/31 18:39:34;;;;;;;5.93;2.07;;;8.40;99.90;;;;;;20835653;28;20094;-78
2023/03/31 18:49:35;;;;;;;6.88;1.98;;;8.30;99.90;;;;;;20840368;28;20744;-78
2023/03/31 18:59:36;;;;;;;4.35;1.75;;;8.30;99.90;;;;;;20810685;28;20046;-78
2023/03/31 19:09:37;;;;;;;2.75;1.33;;;8.40;99.90;;;;;;20825892;28;20036;-77
2023/03/31 19:19:38;;;;;;;2.17;0.50;;;8.40;99.90;;;;;;20811763;28;20037;-78
2023/03/31 19:29:39;;;;;;;4.63;1.63;;;8.50;99.90;;;;;;20810145;28;20030;-78
2023/03/31 19:39:40;;;;;;;13.30;4.30;;;8.50;99.90;;;;;;20820385;28;20496;-78
2023/03/31 19:49:41;;;;;;;11.37;3.60;;;8.60;99.90;;;;;;20828478;28;20101;-78
2023/03/31 19:59:41;;;;;;;7.47;1.00;;;8.70;99.90;;;;;;20814385;28;20040;-78
2023/03/31 20:09:42;;;;;;;12.77;1.90;;;8.90;99.90;;;;;;20809062;28;20379;-78
2023/03/31 20:19:44;;;;;;;10.07;1.03;;;9.00;99.90;;;;;;20834286;28;20037;-79
2023/03/31 20:29:44;;;;;;;;;;;9.10;99.90;;;;;;20819298;28;20033;-78
2023/03/31 20:39:45;;;;;;;4.13;0.70;;;9.20;99.90;;;;;;20840034;28;19913;-81
2023/03/31 20:49:46;;;;;;;3.33;1.00;;;9.30;99.90;;;;;;20826147;28;20372;-78
2023/03/31 20:59:47;;;;;;;4.38;1.08;;;9.40;99.90;;;;;;20818028;28;20022;-78
2023/03/31 21:09:48;;;;;;;5.93;1.20;;;9.40;99.90;;;;;;20819915;28;20030;-79
2023/03/31 21:19:48;;;;;;;10.57;1.20;;;9.60;99.90;;;;;;20824883;28;20029;-78
2023/03/31 21:29:49;;;;;;;9.50;0.90;;;9.70;99.90;;;;;;20822601;28;20412;-78
2023/03/31 21:39:50;;;;;;;13.43;1.90;;;9.70;99.90;;;;;;20822029;28;20079;-77
2023/03/31 21:49:51;;;;;;;5.57;0.60;;;9.90;99.90;;;;;;20796941;28;20057;-78
2023/03/31 21:59:52;;;;;;;;;;;9.40;99.90;;;;;;20823358;28;20029;-78
2023/03/31 22:09:52;;;;;;;2.67;0.57;;;9.30;99.90;;;;;;20811343;28;20299;-78
2023/03/31 22:19:54;;;;;;;2.80;0.50;;;9.20;99.90;;;;;;20816237;28;20037;-77
2023/03/31 22:29:54;;;;;;;4.50;0.77;;;9.20;99.90;;;;;;20830789;28;20557;-78
2023/03/31 22:39:55;;;;;;;3.42;0.70;;;9.20;99.90;;;;;;20826525;28;20025;-78
2023/03/31 22:49:57;;;;;;;2.03;0.47;;;9.10;99.90;;;;;;20825385;28;20080;-78
2023/03/31 22:59:58;;;;;;;2.57;0.97;;;9.10;99.90;;;;;;20829531;28;20017;-79
2023/03/31 23:09:59;;;;;;;8.17;0.80;;;9.00;99.90;;;;;;20845505;22;20136;-79
2023/03/31 23:20:00;;;;;;;4.90;0.77;;;8.90;99.90;;;;;;20844342;28;20187;-78
2023/03/31 23:30:01;;;;;;;1.52;0.10;;;8.30;99.90;;;;;;20848967;28;20033;-78
2023/03/31 23:40:03;;;;;;;3.50;0.57;;;7.80;99.90;;;;;;20847100;28;20029;-78
2023/03/31 23:50:04;;;;;;;2.67;0.40;;;7.30;99.90;;;;;;20843436;28;20116;-78
